Ana Sayfa
METAR-TAF:

METAR-TAF

Havaalanları :

Matagami, Quebec, Kanada

Enlem: 49-46N, Boylam: 077-49W, yükseklik: 281 m

Güncel hava durumu gözlemi

Rapor saat 15:00 UTC de 25 dakika önce yapıldı.
Rüzgar değişken yönden 2 kt
Sıcaklık 16°C
Nem 88%
Basınç 1011 hPa
Görüş mesafesi: 14.5 km
1000 ft yükseklikte parçalı bulutlu
2000 ft yükseklikte çok bulutlu

METAR: CYNM 211500Z AUTO VRB02KT 9SM SCT010 OVC020 16/14 A2984 RMK SLP111 DENSITY ALT 1300FT

Saat: 11:25 (15:25 UTC)


TAF: eksik

4.000'den fazla havaalanı için hava durumu gözlemleri ve tahminleri (METAR ve TAF raporları).

Kullanılabilir istasyonlar harita üzerinde sarı ve kırmızı noktalarla gösterilir.

İstasyonun adını görmek için fareyi noktanın üzerinde gezdirin.

Sonrasında hava gözlem ve tahminlerini görmek için tıklayın.

Haritayı değiştirmek için: yaklaştırmak için siyah artı işaretli yeşil düğmeye ve uzaklaştırmak için de eksi işaretli düğmeye hızla tıklayın; bitişik haritalar için yeşil okları kullanın.


METAR-TAF: